Portada
Imágenes satélite Pronóstico 15 díasClimaPredicción Marítima Ciclones Rayo AeropuertosFAQ Noticias Acerca
El tiempo : Europa África América del Norte América del Sur Asia Australia-Oceanía Otros
Idiomas Contacto

Madrid, España

Barajas

latitud: 40-27N, longitud: 003-33W, altitud: 609 m


METAR: LEMD 182330Z 34002KT 8000 NSC 04/04 Q1030 NOSIG
TAF: LEMD 182300Z 1900/2006 VRB05KT CAVOK TX15/1915Z TN00/1906Z PROB40 1903/1910 3000 BR NSC PROB30 TEMPO 1904/1909 1000 BCFG BKN005

Hora: 00:46 (23:46 UTC)

Observación

El informe se hizo hace 16 minutos, a las 23:30 UTC
Viento 2 kt del norte-noroeste
Temperatura 4°C
Humedad 100%
Presión 1030 hPa
Visibilidad: 8000 m

Cambiar las unidades

Pronóstico

El informe se hizo hace 46 minutos, a las 23:00 UTC
Pronóstico válido del 19 a las 00 UTC al 20 a las 06 UTC
Viento 5 kt con dirección variable
Visibilidad 10 km o más
sin nubes por debajo de 1500 m y sin presencia de cumulonimbus.
Probabilidad 40%
del 19 a las 03 UTC al 19 a las 10 UTC
Visibilidad: 3000 m
neblina
Probabilidad 30% :
Temporalmente
del 19 a las 04 UTC al 19 a las 09 UTC
Visibilidad: 1000 m
Cielo nuboso a una altura de 500 ft
niebla en bancos
La información que se ofrece en estas páginas está sujeta a una cláusula de exención de responsabilidad
El tiempo : Europa África América del Norte América del Sur Asia Australia-Oceanía Otros
Imágenes satélite Pronóstico 15 díasClimaPredicción Marítima Ciclones Rayo AeropuertosFAQ Idiomas Contacto Noticias Acerca